createdAt,value
2018-07-21T00:00:27.141Z,-52
2018-07-21T00:01:22.627Z,-52
2018-07-21T00:02:21.406Z,-52
2018-07-21T00:03:25.123Z,-53
2018-07-21T00:04:24.748Z,-52
2018-07-21T00:05:21.607Z,-52
2018-07-21T00:06:26.888Z,-52
2018-07-21T00:07:24.576Z,-52
2018-07-21T00:09:36.593Z,-52
2018-07-21T00:10:39.672Z,-52
2018-07-21T00:11:40.298Z,-52
2018-07-21T00:12:42.760Z,-51
2018-07-21T00:13:41.683Z,-52
2018-07-21T00:14:38.192Z,-52
2018-07-21T00:15:42.055Z,-52
2018-07-21T00:16:45.928Z,-51
2018-07-21T00:17:42.310Z,-51
2018-07-21T00:18:46.561Z,-52
2018-07-21T00:19:42.925Z,-52
2018-07-21T00:20:47.241Z,-52
2018-07-21T00:21:42.759Z,-52
2018-07-21T00:22:40.714Z,-53
2018-07-21T00:23:42.999Z,-52
2018-07-21T00:24:44.236Z,-52
2018-07-21T00:25:44.039Z,-52
2018-07-21T00:26:44.905Z,-51
2018-07-21T00:29:00.402Z,-52
2018-07-21T00:30:03.132Z,-52
2018-07-21T00:31:07.132Z,-51
2018-07-21T00:32:22.272Z,-52
2018-07-21T00:33:27.487Z,-52
2018-07-21T00:34:23.970Z,-52
2018-07-21T00:35:26.854Z,-51
2018-07-21T00:36:27.408Z,-52
2018-07-21T00:37:29.042Z,-52
2018-07-21T00:39:33.931Z,-52
2018-07-21T00:40:34.246Z,-51
2018-07-21T00:41:32.103Z,-52
2018-07-21T00:42:31.058Z,-52
2018-07-21T00:43:31.063Z,-52
2018-07-21T00:44:28.849Z,-52
2018-07-21T00:45:23.230Z,-52
2018-07-21T00:46:23.459Z,-51
2018-07-21T00:47:22.005Z,-52
2018-07-21T00:48:25.645Z,-52
2018-07-21T00:50:51.670Z,-52
2018-07-21T00:51:50.635Z,-52
2018-07-21T00:52:53.664Z,-52
2018-07-21T00:53:59.762Z,-52
2018-07-21T00:55:02.493Z,-52
2018-07-21T00:55:58.506Z,-52
2018-07-21T00:57:01.418Z,-52
2018-07-21T00:57:16.857Z,-51
2018-07-21T00:58:13.951Z,-52
2018-07-21T00:59:15.097Z,-52
2018-07-21T01:00:12.294Z,-52
2018-07-21T01:01:11.740Z,-52
2018-07-21T01:02:15.626Z,-51
2018-07-21T01:03:12.998Z,-52
2018-07-21T01:05:20.141Z,-52
2018-07-21T01:06:26.754Z,-51
2018-07-21T01:07:24.780Z,-52
2018-07-21T01:08:24.470Z,-52
2018-07-21T01:09:30.108Z,-52
2018-07-21T01:10:27.993Z,-52
2018-07-21T01:11:32.206Z,-52
2018-07-21T01:12:36.789Z,-52
2018-07-21T01:13:35.436Z,-52
2018-07-21T01:14:36.165Z,-52
2018-07-21T01:15:34.733Z,-52
2018-07-21T01:17:47.360Z,-52
2018-07-21T01:18:44.853Z,-51
2018-07-21T01:19:45.490Z,-52
2018-07-21T01:20:40.455Z,-52
2018-07-21T01:21:45.017Z,-51
2018-07-21T01:22:47.525Z,-52
2018-07-21T01:23:44.846Z,-52
2018-07-21T01:24:47.866Z,-52
2018-07-21T01:25:45.613Z,-52
2018-07-21T01:26:49.685Z,-52
2018-07-21T01:27:53.709Z,-52
2018-07-21T01:28:51.357Z,-52
2018-07-21T01:30:59.717Z,-52
2018-07-21T01:32:00.242Z,-52
2018-07-21T01:33:07.428Z,-52
2018-07-21T01:34:19.167Z,-52
2018-07-21T01:35:18.314Z,-52
2018-07-21T01:36:14.508Z,-51
2018-07-21T01:37:15.878Z,-53
2018-07-21T01:38:15.459Z,-52
2018-07-21T01:39:15.509Z,-53
2018-07-21T01:40:15.200Z,-51
2018-07-21T01:42:23.961Z,-52
2018-07-21T01:43:22.592Z,-52
2018-07-21T01:44:18.811Z,-52
2018-07-21T01:45:16.913Z,-52
2018-07-21T01:46:17.770Z,-52
2018-07-21T01:47:18.331Z,-52
2018-07-21T01:48:14.691Z,-52
2018-07-21T01:49:22.966Z,-52
2018-07-21T01:50:20.699Z,-52
2018-07-21T01:51:19.032Z,-52
2018-07-21T01:52:26.058Z,-52
2018-07-21T01:53:26.475Z,-52
2018-07-21T01:54:31.462Z,-52
2018-07-21T01:56:39.952Z,-52
2018-07-21T01:57:38.530Z,-52
2018-07-21T01:58:36.340Z,-52
2018-07-21T01:59:40.312Z,-52
2018-07-21T02:00:49.757Z,-52
2018-07-21T02:01:52.617Z,-52
2018-07-21T02:02:53.790Z,-52
2018-07-21T02:03:49.362Z,-52
2018-07-21T02:04:56.291Z,-53
2018-07-21T02:05:54.780Z,-52
2018-07-21T02:08:17.321Z,-52
2018-07-21T02:09:17.171Z,-52
2018-07-21T02:10:15.262Z,-52
2018-07-21T02:11:13.929Z,-52
2018-07-21T02:12:12.844Z,-51
2018-07-21T02:13:12.324Z,-52
2018-07-21T02:14:16.757Z,-52
2018-07-21T02:15:19.957Z,-52
2018-07-21T02:16:18.826Z,-52
2018-07-21T02:17:16.696Z,-52
2018-07-21T02:18:12.896Z,-52
2018-07-21T02:19:11.929Z,-52
2018-07-21T02:21:19.823Z,-52
2018-07-21T02:22:24.512Z,-52
2018-07-21T02:23:26.790Z,-51
2018-07-21T02:24:24.827Z,-52
2018-07-21T02:25:25.219Z,-51
2018-07-21T02:26:22.336Z,-53
2018-07-21T02:27:23.827Z,-51
2018-07-21T02:28:22.662Z,-52
2018-07-21T02:29:22.481Z,-52
2018-07-21T02:30:23.407Z,-52
2018-07-21T02:31:30.014Z,-52
2018-07-21T02:32:30.827Z,-53
2018-07-21T02:33:26.278Z,-51
2018-07-21T02:34:23.962Z,-51
2018-07-21T02:36:31.171Z,-52
2018-07-21T02:37:30.074Z,-52
2018-07-21T02:38:28.747Z,-51
2018-07-21T02:39:37.177Z,-54
2018-07-21T02:40:35.009Z,-52
2018-07-21T02:41:34.575Z,-51
2018-07-21T02:42:35.041Z,-51
2018-07-21T02:43:33.996Z,-52
2018-07-21T02:44:35.879Z,-52
2018-07-21T02:45:33.126Z,-52
2018-07-21T02:46:40.201Z,-52
2018-07-21T02:47:43.667Z,-51
2018-07-21T02:49:53.200Z,-52
2018-07-21T02:50:57.893Z,-52
2018-07-21T02:52:01.098Z,-52
2018-07-21T02:52:59.821Z,-52
2018-07-21T02:53:55.452Z,-53
2018-07-21T02:54:53.331Z,-52
2018-07-21T02:55:52.949Z,-51
2018-07-21T02:56:53.117Z,-51
2018-07-21T02:57:54.226Z,-53
2018-07-21T02:58:50.826Z,-52
2018-07-21T02:59:50.540Z,-53
2018-07-21T03:02:04.555Z,-53
2018-07-21T03:03:03.170Z,-52
2018-07-21T03:03:58.875Z,-52
2018-07-21T03:04:56.443Z,-52
2018-07-21T03:05:55.527Z,-52
2018-07-21T03:06:59.161Z,-51
2018-07-21T03:07:58.422Z,-51
2018-07-21T03:09:00.445Z,-51
2018-07-21T03:09:59.074Z,-52
2018-07-21T03:10:58.055Z,-52
2018-07-21T03:12:03.341Z,-53
2018-07-21T03:13:02.167Z,-51
2018-07-21T03:14:00.092Z,-52
2018-07-21T03:15:02.814Z,-52
2018-07-21T03:16:03.208Z,-51
2018-07-21T03:17:00.611Z,-52
2018-07-21T03:19:07.073Z,-52
2018-07-21T03:20:07.841Z,-52
2018-07-21T03:21:05.501Z,-52
2018-07-21T03:22:03.012Z,-51
2018-07-21T03:23:05.228Z,-52
2018-07-21T03:23:58.778Z,-51
2018-07-21T03:25:01.384Z,-52
2018-07-21T03:25:59.872Z,-52
2018-07-21T03:26:59.389Z,-52
2018-07-21T03:29:13.937Z,-53
2018-07-21T03:30:12.451Z,-51
2018-07-21T03:31:10.291Z,-51
2018-07-21T03:32:12.280Z,-52
2018-07-21T03:33:10.953Z,-52
2018-07-21T03:34:08.895Z,-52
2018-07-21T03:35:07.108Z,-52
2018-07-21T03:36:11.010Z,-52
2018-07-21T03:37:07.620Z,-52
2018-07-21T03:39:11.070Z,-53
2018-07-21T03:40:12.501Z,-52
2018-07-21T03:41:09.839Z,-52
2018-07-21T03:42:12.057Z,-52
2018-07-21T03:43:10.079Z,-52
2018-07-21T03:44:12.931Z,-52
2018-07-21T03:45:07.622Z,-52
2018-07-21T03:46:09.927Z,-51
2018-07-21T03:47:05.319Z,-52
2018-07-21T03:49:22.202Z,-52
2018-07-21T03:50:21.192Z,-52
2018-07-21T03:51:20.364Z,-51
2018-07-21T03:52:28.525Z,-52
2018-07-21T03:53:21.983Z,-52
2018-07-21T03:54:25.788Z,-52
2018-07-21T03:55:22.198Z,-52
2018-07-21T03:56:22.529Z,-53
2018-07-21T03:57:24.913Z,-52
2018-07-21T03:58:22.686Z,-52
2018-07-21T04:00:31.206Z,-52
2018-07-21T04:01:33.014Z,-52
2018-07-21T04:02:44.343Z,-52
2018-07-21T04:03:51.048Z,-53
2018-07-21T04:04:46.037Z,-52
2018-07-21T04:05:47.322Z,-52
2018-07-21T04:06:50.458Z,-52
2018-07-21T04:07:48.390Z,-52
2018-07-21T04:08:47.754Z,-52
2018-07-21T04:09:47.043Z,-52
2018-07-21T04:10:53.284Z,-52
2018-07-21T04:11:47.998Z,-52
2018-07-21T04:14:00.894Z,-52
2018-07-21T04:15:04.151Z,-52
2018-07-21T04:16:02.696Z,-52
2018-07-21T04:17:03.140Z,-51
2018-07-21T04:18:02.004Z,-52
2018-07-21T04:19:00.699Z,-52
2018-07-21T04:20:00.786Z,-52
2018-07-21T04:21:00.511Z,-52
2018-07-21T04:22:09.491Z,-52
2018-07-21T04:23:06.576Z,-52
2018-07-21T04:24:05.185Z,-52
2018-07-21T04:25:04.225Z,-52
2018-07-21T04:26:09.439Z,-52
2018-07-21T04:28:16.498Z,-53
2018-07-21T04:29:25.471Z,-53
2018-07-21T04:30:28.503Z,-53
2018-07-21T04:31:29.845Z,-53
2018-07-21T04:32:31.213Z,-53
2018-07-21T04:33:31.697Z,-52
2018-07-21T04:34:28.041Z,-53
2018-07-21T04:35:27.114Z,-53
2018-07-21T04:36:33.413Z,-52
2018-07-21T04:37:28.354Z,-53
2018-07-21T04:38:26.501Z,-53
2018-07-21T04:39:24.554Z,-52
2018-07-21T04:40:31.713Z,-51
2018-07-21T04:41:31.546Z,-52
2018-07-21T04:42:35.938Z,-52
2018-07-21T04:43:33.867Z,-53
2018-07-21T04:44:32.640Z,-53
2018-07-21T04:45:31.170Z,-53
2018-07-21T04:46:31.145Z,-52
2018-07-21T04:47:28.888Z,-51
2018-07-21T04:48:31.059Z,-52
2018-07-21T04:49:28.810Z,-51
2018-07-21T04:50:30.743Z,-51
2018-07-21T04:51:34.797Z,-53
2018-07-21T04:52:39.140Z,-53
2018-07-21T04:53:33.766Z,-54
2018-07-21T04:54:36.024Z,-54
2018-07-21T04:56:45.315Z,-54
2018-07-21T04:57:43.158Z,-54
2018-07-21T04:58:46.927Z,-54
2018-07-21T04:59:47.043Z,-54
2018-07-21T05:00:48.698Z,-55
2018-07-21T05:01:49.970Z,-54
2018-07-21T05:02:46.564Z,-54
2018-07-21T05:03:54.988Z,-54
2018-07-21T05:04:50.390Z,-54
2018-07-21T05:06:00.220Z,-55
2018-07-21T05:06:56.564Z,-55
2018-07-21T05:09:19.706Z,-54
2018-07-21T05:10:21.122Z,-54
2018-07-21T05:11:18.962Z,-54
2018-07-21T05:12:23.343Z,-54
2018-07-21T05:13:22.321Z,-54
2018-07-21T05:14:20.854Z,-54
2018-07-21T05:15:24.252Z,-54
2018-07-21T05:16:21.816Z,-54
2018-07-21T05:17:19.912Z,-54
2018-07-21T05:18:17.191Z,-54
2018-07-21T05:19:15.464Z,-55
2018-07-21T05:21:24.432Z,-54
2018-07-21T05:22:23.181Z,-54
2018-07-21T05:23:18.742Z,-54
2018-07-21T05:24:23.035Z,-55
2018-07-21T05:25:21.765Z,-54
2018-07-21T05:26:31.537Z,-54
2018-07-21T05:27:30.796Z,-54
2018-07-21T05:28:31.694Z,-54
2018-07-21T05:29:29.788Z,-53
2018-07-21T05:30:27.486Z,-53
2018-07-21T05:31:27.401Z,-54
2018-07-21T05:32:36.616Z,-55
2018-07-21T05:33:36.557Z,-48
2018-07-21T05:34:36.618Z,-54
2018-07-21T05:35:34.424Z,-54
2018-07-21T05:36:35.474Z,-55
2018-07-21T05:37:32.084Z,-54
2018-07-21T05:38:31.146Z,-55
2018-07-21T05:39:28.770Z,-54
2018-07-21T05:40:28.730Z,-54
2018-07-21T05:41:31.981Z,-54
2018-07-21T05:42:27.636Z,-54
2018-07-21T05:43:28.857Z,-55
2018-07-21T05:45:36.044Z,-54
2018-07-21T05:46:33.608Z,-55
2018-07-21T05:47:32.420Z,-54
2018-07-21T05:48:33.623Z,-55
2018-07-21T05:49:31.160Z,-54
2018-07-21T05:50:26.655Z,-55
2018-07-21T05:51:29.199Z,-54
2018-07-21T05:52:27.643Z,-54
2018-07-21T05:53:28.071Z,-54
2018-07-21T05:54:26.221Z,-54
2018-07-21T05:56:33.588Z,-55
2018-07-21T05:57:37.691Z,-55
2018-07-21T05:58:35.617Z,-54
2018-07-21T05:59:34.264Z,-54
2018-07-21T06:00:36.590Z,-55
2018-07-21T06:01:37.280Z,-55
2018-07-21T06:02:34.110Z,-55
2018-07-21T06:03:36.060Z,-55
2018-07-21T06:04:30.747Z,-55
2018-07-21T06:05:30.565Z,-54
2018-07-21T06:06:31.916Z,-55
2018-07-21T06:07:30.732Z,-55
2018-07-21T06:08:31.345Z,-55
2018-07-21T06:09:32.603Z,-54
2018-07-21T06:10:36.525Z,-55
2018-07-21T06:11:37.302Z,-55
2018-07-21T06:12:40.239Z,-55
2018-07-21T06:13:42.689Z,-55
2018-07-21T06:14:40.143Z,-55
2018-07-21T06:15:41.531Z,-56
2018-07-21T06:16:43.483Z,-54
2018-07-21T06:17:44.510Z,-53
2018-07-21T06:18:39.967Z,-53
2018-07-21T06:19:37.996Z,-52
2018-07-21T06:20:36.834Z,-52
2018-07-21T06:21:37.790Z,-52
2018-07-21T06:22:40.684Z,-52
2018-07-21T06:24:49.012Z,-52
2018-07-21T06:25:47.118Z,-52
2018-07-21T06:26:45.214Z,-52
2018-07-21T06:27:46.602Z,-51
2018-07-21T06:29:00.826Z,-52
2018-07-21T06:29:59.354Z,-52
2018-07-21T06:31:01.939Z,-52
2018-07-21T06:32:00.529Z,-52
2018-07-21T06:32:56.916Z,-52
2018-07-21T06:35:06.681Z,-53
2018-07-21T06:36:17.209Z,-52
2018-07-21T06:37:16.099Z,-53
2018-07-21T06:38:17.733Z,-52
2018-07-21T06:39:16.378Z,-52
2018-07-21T06:40:14.191Z,-54
2018-07-21T06:41:12.072Z,-52
2018-07-21T06:42:10.882Z,-52
2018-07-21T06:43:08.825Z,-51
2018-07-21T06:44:06.771Z,-53
2018-07-21T06:45:19.841Z,-52
2018-07-21T06:46:24.491Z,-52
2018-07-21T06:47:21.900Z,-53
2018-07-21T06:48:22.578Z,-59
2018-07-21T06:49:22.747Z,-53
2018-07-21T06:50:23.947Z,-54
2018-07-21T06:51:25.928Z,-55
2018-07-21T06:52:21.789Z,-55
2018-07-21T06:54:33.265Z,-55
2018-07-21T06:55:31.804Z,-55
2018-07-21T06:56:29.631Z,-54
2018-07-21T06:57:28.102Z,-55
2018-07-21T06:58:28.112Z,-55
2018-07-21T06:59:29.114Z,-54
2018-07-21T07:00:27.036Z,-54
2018-07-21T07:01:27.425Z,-55
2018-07-21T07:02:22.716Z,-54
2018-07-21T07:03:24.234Z,-53
2018-07-21T07:04:27.503Z,-54
2018-07-21T07:05:21.542Z,-54
2018-07-21T07:07:25.535Z,-53
2018-07-21T07:08:26.770Z,-53
2018-07-21T07:09:28.428Z,-53
2018-07-21T07:10:23.212Z,-53
2018-07-21T07:11:27.469Z,-53
2018-07-21T07:12:27.532Z,-54
2018-07-21T07:13:27.468Z,-54
2018-07-21T07:14:23.741Z,-53
2018-07-21T07:15:28.824Z,-53
2018-07-21T07:16:33.769Z,-53
2018-07-21T07:17:37.509Z,-53
2018-07-21T07:18:33.702Z,-53
2018-07-21T07:20:45.491Z,-54
2018-07-21T07:21:43.536Z,-53
2018-07-21T07:22:49.471Z,-53
2018-07-21T07:23:46.937Z,-53
2018-07-21T07:24:45.481Z,-53
2018-07-21T07:25:43.267Z,-54
2018-07-21T07:26:41.434Z,-51
2018-07-21T07:27:47.590Z,-50
2018-07-21T07:28:48.938Z,-51
2018-07-21T07:29:47.490Z,-53
2018-07-21T07:31:57.995Z,-54
2018-07-21T07:32:58.636Z,-54
2018-07-21T07:33:57.370Z,-52
2018-07-21T07:34:55.544Z,-53
2018-07-21T07:35:50.768Z,-54
2018-07-21T07:36:54.036Z,-53
2018-07-21T07:37:48.444Z,-55
2018-07-21T07:38:46.547Z,-53
2018-07-21T07:39:48.816Z,-53
2018-07-21T07:40:43.940Z,-53
2018-07-21T07:42:51.490Z,-54
2018-07-21T07:43:55.600Z,-54
2018-07-21T07:44:53.795Z,-54
2018-07-21T07:45:21.127Z,-55
2018-07-21T07:46:17.776Z,-54
2018-07-21T07:47:17.870Z,-54
2018-07-21T07:48:20.935Z,-54
2018-07-21T07:49:16.655Z,-55
2018-07-21T07:50:18.733Z,-54
2018-07-21T07:51:16.554Z,-54
2018-07-21T07:53:24.492Z,-54
2018-07-21T07:54:28.953Z,-54
2018-07-21T07:55:27.750Z,-54
2018-07-21T07:56:23.965Z,-54
2018-07-21T07:57:21.934Z,-54
2018-07-21T07:58:26.436Z,-54
2018-07-21T07:59:29.095Z,-54
2018-07-21T08:00:29.205Z,-54
2018-07-21T08:01:26.379Z,-54
2018-07-21T08:02:23.824Z,-54
2018-07-21T08:03:26.557Z,-53
2018-07-21T08:04:19.366Z,-54
2018-07-21T08:06:36.285Z,-53
2018-07-21T08:07:38.259Z,-53
2018-07-21T08:08:33.515Z,-53
2018-07-21T08:09:34.853Z,-54
2018-07-21T08:10:32.494Z,-53
2018-07-21T08:11:30.387Z,-53
2018-07-21T08:12:30.273Z,-53
2018-07-21T08:13:39.076Z,-53
2018-07-21T08:14:41.283Z,-53
2018-07-21T08:15:45.810Z,-54
2018-07-21T08:16:40.843Z,-54
2018-07-21T08:17:43.507Z,-54
2018-07-21T08:18:42.313Z,-55
2018-07-21T08:19:39.580Z,-54
2018-07-21T08:21:56.908Z,-55
2018-07-21T08:22:54.796Z,-54
2018-07-21T08:23:53.892Z,-54
2018-07-21T08:24:51.754Z,-55
2018-07-21T08:25:52.587Z,-54
2018-07-21T08:26:51.612Z,-54
2018-07-21T08:27:51.213Z,-54
2018-07-21T08:28:57.637Z,-55
2018-07-21T08:29:56.512Z,-54
2018-07-21T08:30:57.839Z,-53
2018-07-21T08:32:06.241Z,-58
2018-07-21T08:33:07.806Z,-52
2018-07-21T08:34:13.272Z,-52
2018-07-21T08:36:27.533Z,-51
2018-07-21T08:37:25.714Z,-51
2018-07-21T08:38:28.275Z,-51
2018-07-21T08:39:23.590Z,-50
2018-07-21T08:40:22.466Z,-50
2018-07-21T08:41:21.431Z,-51
2018-07-21T08:42:20.135Z,-51
2018-07-21T08:43:23.005Z,-50
2018-07-21T08:44:22.378Z,-50
2018-07-21T08:45:21.142Z,-52
2018-07-21T08:46:18.589Z,-51
2018-07-21T08:48:33.399Z,-51
2018-07-21T08:49:34.564Z,-50
2018-07-21T08:50:34.440Z,-51
2018-07-21T08:51:34.312Z,-50
2018-07-21T08:52:32.790Z,-51
2018-07-21T08:53:30.444Z,-51
2018-07-21T08:54:29.633Z,-51
2018-07-21T08:55:30.821Z,-50
2018-07-21T08:56:34.469Z,-50
2018-07-21T08:57:35.936Z,-50
2018-07-21T08:58:31.020Z,-50
2018-07-21T08:59:29.219Z,-50
2018-07-21T09:01:36.448Z,-51
2018-07-21T09:02:35.638Z,-50
2018-07-21T09:03:32.977Z,-50
2018-07-21T09:04:33.654Z,-52
2018-07-21T09:05:32.869Z,-52
2018-07-21T09:06:30.515Z,-49
2018-07-21T09:07:28.219Z,-50
2018-07-21T09:08:26.255Z,-51
2018-07-21T09:09:25.846Z,-51
2018-07-21T09:10:25.748Z,-52
2018-07-21T09:12:39.856Z,-51
2018-07-21T09:13:42.250Z,-51
2018-07-21T09:14:43.871Z,-50
2018-07-21T09:15:42.712Z,-51
2018-07-21T09:16:38.943Z,-51
2018-07-21T09:17:39.047Z,-52
2018-07-21T09:18:41.650Z,-50
2018-07-21T09:19:36.653Z,-50
2018-07-21T09:20:44.043Z,-51
2018-07-21T09:21:45.969Z,-51
2018-07-21T09:22:42.563Z,-50
2018-07-21T09:23:40.496Z,-51
2018-07-21T09:24:42.478Z,-51
2018-07-21T09:25:40.739Z,-52
2018-07-21T09:26:42.778Z,-51
2018-07-21T09:27:44.736Z,-51
2018-07-21T09:28:41.444Z,-52
2018-07-21T09:30:49.603Z,-52
2018-07-21T09:31:45.939Z,-51
2018-07-21T09:32:46.332Z,-51
2018-07-21T09:33:43.612Z,-52
2018-07-21T09:34:45.961Z,-52
2018-07-21T09:35:45.254Z,-52
2018-07-21T09:36:45.901Z,-52
2018-07-21T09:37:48.186Z,-53
2018-07-21T09:38:46.056Z,-53
2018-07-21T09:39:47.442Z,-52
2018-07-21T09:40:45.053Z,-53
2018-07-21T09:41:43.040Z,-52
2018-07-21T09:42:44.449Z,-52
2018-07-21T09:43:45.933Z,-52
2018-07-21T09:44:45.705Z,-50
2018-07-21T09:45:52.624Z,-51
2018-07-21T09:46:53.038Z,-51
2018-07-21T09:47:54.819Z,-54
2018-07-21T09:48:59.347Z,-53
2018-07-21T09:49:54.680Z,-52
2018-07-21T09:50:52.447Z,-51
2018-07-21T09:53:00.279Z,-54
2018-07-21T09:54:00.161Z,-52
2018-07-21T09:54:59.676Z,-52
2018-07-21T09:56:00.906Z,-51
2018-07-21T09:56:58.738Z,-52
2018-07-21T09:57:56.664Z,-51
2018-07-21T09:58:54.019Z,-52
2018-07-21T09:59:58.221Z,-52
2018-07-21T10:01:00.487Z,-52
2018-07-21T10:01:58.216Z,-51
2018-07-21T10:02:53.588Z,-51
2018-07-21T10:03:55.804Z,-51
2018-07-21T10:04:54.359Z,-52
2018-07-21T10:07:08.235Z,-52
2018-07-21T10:08:03.736Z,-52
2018-07-21T10:09:03.824Z,-52
2018-07-21T10:10:01.801Z,-52
2018-07-21T10:10:59.518Z,-52
2018-07-21T10:11:58.877Z,-52
2018-07-21T10:12:59.442Z,-52
2018-07-21T10:13:57.140Z,-52
2018-07-21T10:15:00.242Z,-52
2018-07-21T10:17:08.620Z,-53
2018-07-21T10:18:03.784Z,-52
2018-07-21T10:19:10.823Z,-52
2018-07-21T10:20:12.287Z,-52
2018-07-21T10:21:10.915Z,-52
2018-07-21T10:22:06.542Z,-52
2018-07-21T10:23:09.599Z,-52
2018-07-21T10:24:08.020Z,-52
2018-07-21T10:25:06.152Z,-51
2018-07-21T10:26:08.478Z,-52
2018-07-21T10:27:11.005Z,-52
2018-07-21T10:29:19.779Z,-52
2018-07-21T10:30:18.614Z,-52
2018-07-21T10:31:19.231Z,-52
2018-07-21T10:32:15.082Z,-52
2018-07-21T10:33:19.489Z,-54
2018-07-21T10:34:15.693Z,-51
2018-07-21T10:35:17.023Z,-54
2018-07-21T10:36:17.943Z,-54
2018-07-21T10:37:16.018Z,-55
2018-07-21T10:38:15.381Z,-55
2018-07-21T10:39:18.239Z,-54
2018-07-21T10:40:19.190Z,-54
2018-07-21T10:41:21.848Z,-55
2018-07-21T10:43:29.194Z,-55
2018-07-21T10:44:29.954Z,-55
2018-07-21T10:45:25.035Z,-55
2018-07-21T10:46:27.699Z,-55
2018-07-21T10:47:22.839Z,-54
2018-07-21T10:48:25.183Z,-53
2018-07-21T10:49:23.228Z,-54
2018-07-21T10:50:22.138Z,-54
2018-07-21T10:51:25.072Z,-54
2018-07-21T10:52:21.447Z,-54
2018-07-21T10:54:32.980Z,-55
2018-07-21T10:55:31.028Z,-55
2018-07-21T10:56:29.862Z,-53
2018-07-21T10:57:27.493Z,-54
2018-07-21T10:58:22.945Z,-54
2018-07-21T10:59:25.622Z,-54
2018-07-21T11:00:20.919Z,-54
2018-07-21T11:01:22.381Z,-53
2018-07-21T11:02:18.725Z,-53
2018-07-21T11:03:26.041Z,-53
2018-07-21T11:04:27.807Z,-52
2018-07-21T11:05:26.528Z,-54
2018-07-21T11:06:28.832Z,-54
2018-07-21T11:07:33.631Z,-53
2018-07-21T11:08:33.626Z,-53
2018-07-21T11:09:32.437Z,-52
2018-07-21T11:10:30.404Z,-52
2018-07-21T11:11:36.364Z,-51
2018-07-21T11:12:43.263Z,-52
2018-07-21T11:13:42.008Z,-50
2018-07-21T11:15:49.754Z,-52
2018-07-21T11:16:48.426Z,-51
2018-07-21T11:17:46.536Z,-53
2018-07-21T11:18:44.520Z,-53
2018-07-21T11:19:45.875Z,-54
2018-07-21T11:20:48.528Z,-53
2018-07-21T11:21:47.163Z,-53
2018-07-21T11:22:42.591Z,-53
2018-07-21T11:23:45.578Z,-55
2018-07-21T11:24:45.393Z,-52
2018-07-21T11:26:00.190Z,-52
2018-07-21T11:26:55.819Z,-53
2018-07-21T11:27:58.963Z,-53
2018-07-21T11:29:02.658Z,-53
2018-07-21T11:30:05.110Z,-52
2018-07-21T11:31:07.244Z,-53
2018-07-21T11:32:07.161Z,-53
2018-07-21T11:33:05.051Z,-53
2018-07-21T11:35:16.069Z,-54
2018-07-21T11:36:12.829Z,-63
2018-07-21T11:37:11.347Z,-50
2018-07-21T11:38:20.082Z,-53
2018-07-21T11:39:16.370Z,-51
2018-07-21T11:40:20.849Z,-53
2018-07-21T11:41:16.065Z,-53
2018-07-21T11:42:18.313Z,-55
2018-07-21T11:43:13.890Z,-54
2018-07-21T11:45:38.496Z,-54
2018-07-21T11:46:39.367Z,-55
2018-07-21T11:47:38.398Z,-55
2018-07-21T11:48:38.936Z,-55
2018-07-21T11:49:36.181Z,-55
2018-07-21T11:50:37.475Z,-54
2018-07-21T11:51:37.267Z,-53
2018-07-21T11:52:35.334Z,-54
2018-07-21T11:53:33.819Z,-54
2018-07-21T11:55:45.235Z,-55
2018-07-21T11:56:45.359Z,-54
2018-07-21T11:57:40.754Z,-54
2018-07-21T11:58:38.284Z,-54
2018-07-21T11:59:39.840Z,-51
2018-07-21T12:00:36.300Z,-53
2018-07-21T12:01:38.470Z,-54
2018-07-21T12:02:49.001Z,-52
2018-07-21T12:03:46.518Z,-53
2018-07-21T12:04:42.430Z,-52
2018-07-21T12:06:53.733Z,-53
2018-07-21T12:07:52.673Z,-53
2018-07-21T12:08:57.681Z,-53
2018-07-21T12:09:55.400Z,-53
2018-07-21T12:10:53.272Z,-53
2018-07-21T12:11:48.826Z,-53
2018-07-21T12:12:48.755Z,-52
2018-07-21T12:13:49.529Z,-53
2018-07-21T12:14:49.609Z,-53
2018-07-21T12:15:49.280Z,-52
2018-07-21T12:16:51.451Z,-52
2018-07-21T12:17:47.948Z,-54
2018-07-21T12:19:57.843Z,-55
2018-07-21T12:20:55.311Z,-53
2018-07-21T12:21:58.044Z,-53
2018-07-21T12:23:06.318Z,-52
2018-07-21T12:24:05.340Z,-53
2018-07-21T12:25:09.662Z,-53
2018-07-21T12:26:09.324Z,-52
2018-07-21T12:27:08.294Z,-54
2018-07-21T12:28:03.781Z,-54
2018-07-21T12:29:05.079Z,-53
2018-07-21T12:30:04.497Z,-55
2018-07-21T12:31:16.120Z,-53
2018-07-21T12:32:16.272Z,-54
2018-07-21T12:34:25.410Z,-53
2018-07-21T12:35:21.723Z,-52
2018-07-21T12:36:27.330Z,-53
2018-07-21T12:37:22.788Z,-53
2018-07-21T12:38:26.838Z,-54
2018-07-21T12:39:24.767Z,-53
2018-07-21T12:40:20.391Z,-54
2018-07-21T12:41:22.576Z,-53
2018-07-21T12:42:18.911Z,-53
2018-07-21T12:43:17.204Z,-52
2018-07-21T12:44:19.020Z,-53
2018-07-21T12:45:16.616Z,-51
2018-07-21T12:46:23.414Z,-53
2018-07-21T12:47:23.195Z,-50
2018-07-21T12:49:34.331Z,-53
2018-07-21T12:50:33.818Z,-52
2018-07-21T12:51:37.458Z,-52
2018-07-21T12:52:33.753Z,-52
2018-07-21T12:53:35.236Z,-52
2018-07-21T12:54:30.661Z,-52
2018-07-21T12:55:31.872Z,-53
2018-07-21T12:56:27.358Z,-54
2018-07-21T12:57:28.160Z,-54
2018-07-21T12:58:26.096Z,-52
2018-07-21T13:00:34.913Z,-54
2018-07-21T13:01:42.696Z,-53
2018-07-21T13:02:39.155Z,-53
2018-07-21T13:03:40.283Z,-53
2018-07-21T13:04:35.847Z,-53
2018-07-21T13:05:41.141Z,-54
2018-07-21T13:06:42.021Z,-52
2018-07-21T13:07:50.218Z,-53
2018-07-21T13:08:47.843Z,-53
2018-07-21T13:09:53.974Z,-52
2018-07-21T13:10:55.415Z,-51
2018-07-21T13:13:13.145Z,-52
2018-07-21T13:14:13.768Z,-51
2018-07-21T13:15:11.030Z,-52
2018-07-21T13:16:11.273Z,-52
2018-07-21T13:17:06.975Z,-51
2018-07-21T13:18:04.712Z,-51
2018-07-21T13:19:02.552Z,-51
2018-07-21T13:20:06.837Z,-52
2018-07-21T13:21:03.194Z,-51
2018-07-21T13:22:01.353Z,-52
2018-07-21T13:23:01.239Z,-51
2018-07-21T13:24:10.429Z,-51
2018-07-21T13:25:13.857Z,-51
2018-07-21T13:26:17.922Z,-51
2018-07-21T13:27:12.950Z,-52
2018-07-21T13:29:32.167Z,-52
2018-07-21T13:30:31.924Z,-51
2018-07-21T13:31:29.603Z,-51
2018-07-21T13:32:42.436Z,-51
2018-07-21T13:33:50.790Z,-51
2018-07-21T13:34:51.376Z,-51
2018-07-21T13:35:46.689Z,-51
2018-07-21T13:36:50.219Z,-51
2018-07-21T13:37:48.582Z,-52
2018-07-21T13:38:50.664Z,-51
2018-07-21T13:40:57.742Z,-52
2018-07-21T13:41:55.521Z,-51
2018-07-21T13:42:53.493Z,-51
2018-07-21T13:43:53.239Z,-52
2018-07-21T13:44:54.342Z,-51
2018-07-21T13:45:57.636Z,-52
2018-07-21T13:46:58.128Z,-52
2018-07-21T13:47:58.732Z,-52
2018-07-21T13:48:56.591Z,-52
2018-07-21T13:51:03.313Z,-52
2018-07-21T13:52:03.424Z,-52
2018-07-21T13:52:59.444Z,-52
2018-07-21T13:53:58.398Z,-52
2018-07-21T13:54:58.207Z,-51
2018-07-21T13:55:59.082Z,-52
2018-07-21T13:56:56.921Z,-52
2018-07-21T13:57:58.316Z,-51
2018-07-21T13:59:04.294Z,-51
2018-07-21T14:00:05.160Z,-52
2018-07-21T14:01:03.763Z,-52
2018-07-21T14:02:03.461Z,-52
2018-07-21T14:04:20.206Z,-52
2018-07-21T14:05:31.292Z,-52
2018-07-21T14:06:31.716Z,-51
2018-07-21T14:07:27.079Z,-54
2018-07-21T14:08:26.267Z,-59
2018-07-21T14:09:26.033Z,-52
2018-07-21T14:10:27.066Z,-51
2018-07-21T14:11:27.049Z,-51
2018-07-21T14:12:34.540Z,-51
2018-07-21T14:13:29.623Z,-51
2018-07-21T14:14:36.417Z,-51
2018-07-21T14:15:34.940Z,-52
2018-07-21T14:17:43.884Z,-52
2018-07-21T14:18:44.510Z,-52
2018-07-21T14:19:45.282Z,-52
2018-07-21T14:20:47.155Z,-52
2018-07-21T14:21:43.575Z,-51
2018-07-21T14:22:46.646Z,-51
2018-07-21T14:23:44.450Z,-51
2018-07-21T14:24:45.956Z,-51
2018-07-21T14:25:43.769Z,-51
2018-07-21T14:26:43.526Z,-51
2018-07-21T14:28:51.361Z,-51
2018-07-21T14:29:50.424Z,-51
2018-07-21T14:30:56.542Z,-51
2018-07-21T14:31:54.599Z,-51
2018-07-21T14:33:04.856Z,-51
2018-07-21T14:34:03.050Z,-52
2018-07-21T14:35:01.861Z,-51
2018-07-21T14:36:03.448Z,-51
2018-07-21T14:36:17.784Z,-52
2018-07-21T14:37:22.877Z,-52
2018-07-21T14:38:30.167Z,-51
2018-07-21T14:39:26.792Z,-51
2018-07-21T14:41:33.557Z,-52
2018-07-21T14:42:31.279Z,-51
2018-07-21T14:43:34.577Z,-51
2018-07-21T14:44:44.983Z,-51
2018-07-21T14:45:50.364Z,-52
2018-07-21T14:46:45.565Z,-52
2018-07-21T14:47:43.154Z,-52
2018-07-21T14:48:42.434Z,-52
2018-07-21T14:49:42.075Z,-52
2018-07-21T14:50:39.988Z,-52
2018-07-21T14:51:41.369Z,-52
2018-07-21T14:52:41.030Z,-52
2018-07-21T14:53:38.367Z,-54
2018-07-21T14:54:47.445Z,-52
2018-07-21T14:56:59.690Z,-52
2018-07-21T14:57:58.374Z,-52
2018-07-21T14:58:54.146Z,-52
2018-07-21T14:59:57.505Z,-56
2018-07-21T15:00:52.576Z,-52
2018-07-21T15:01:53.132Z,-53
2018-07-21T15:02:53.666Z,-52
2018-07-21T15:03:51.301Z,-51
2018-07-21T15:04:56.928Z,-51